createdAt,value
2018-07-26T00:01:35.044Z,99.90
2018-07-26T00:04:03.166Z,99.90
2018-07-26T00:06:31.304Z,99.90
2018-07-26T00:08:59.193Z,99.90
2018-07-26T00:11:27.310Z,99.90
2018-07-26T00:13:55.240Z,99.90
2018-07-26T00:16:23.296Z,99.90
2018-07-26T00:18:51.274Z,99.90
2018-07-26T00:21:19.416Z,99.90
2018-07-26T00:23:47.324Z,99.90
2018-07-26T00:26:15.292Z,99.90
2018-07-26T00:28:43.368Z,99.90
2018-07-26T00:31:11.502Z,99.90
2018-07-26T00:33:39.484Z,99.90
2018-07-26T00:36:07.756Z,99.90
2018-07-26T00:38:35.750Z,99.90
2018-07-26T00:41:03.789Z,99.90
2018-07-26T00:43:31.947Z,99.90
2018-07-26T00:46:00.167Z,99.90
2018-07-26T00:48:28.160Z,99.90
2018-07-26T00:50:56.375Z,99.90
2018-07-26T00:53:24.616Z,99.90
2018-07-26T00:55:53.001Z,99.90
2018-07-26T00:58:21.310Z,99.90
2018-07-26T01:00:49.096Z,99.90
2018-07-26T01:03:16.948Z,99.90
2018-07-26T01:10:40.589Z,99.90
2018-07-26T01:13:08.590Z,99.90
2018-07-26T01:15:36.814Z,99.90
2018-07-26T01:18:05.010Z,99.90
2018-07-26T01:20:32.994Z,99.90
2018-07-26T01:23:01.066Z,99.90
2018-07-26T01:25:29.056Z,99.90
2018-07-26T01:27:57.420Z,99.90
2018-07-26T01:30:25.462Z,99.90
2018-07-26T01:32:53.570Z,99.90
2018-07-26T01:35:21.510Z,99.90
2018-07-26T01:37:49.686Z,99.90
2018-07-26T01:40:18.087Z,99.90
2018-07-26T01:42:51.893Z,99.90
2018-07-26T01:45:19.808Z,99.90
2018-07-26T01:47:47.792Z,99.90
2018-07-26T01:50:15.838Z,99.90
2018-07-26T01:52:43.947Z,99.90
2018-07-26T01:55:11.842Z,99.90
2018-07-26T01:57:40.091Z,99.90
2018-07-26T02:00:08.271Z,99.90
2018-07-26T02:02:36.389Z,99.90
2018-07-26T02:05:04.699Z,99.90
2018-07-26T02:07:32.829Z,99.90
2018-07-26T02:10:00.911Z,99.90
2018-07-26T02:12:28.877Z,99.90
2018-07-26T02:14:56.953Z,99.90
2018-07-26T02:17:25.123Z,99.90
2018-07-26T02:19:53.194Z,99.90
2018-07-26T02:22:21.388Z,99.90
2018-07-26T02:24:49.647Z,99.90
2018-07-26T02:27:17.891Z,99.90
2018-07-26T02:29:46.021Z,99.90
2018-07-26T02:32:14.165Z,99.90
2018-07-26T02:34:43.677Z,99.90
2018-07-26T02:37:11.603Z,99.90
2018-07-26T02:39:39.771Z,99.90
2018-07-26T02:42:07.951Z,99.90
2018-07-26T02:44:36.335Z,99.90
2018-07-26T02:47:04.353Z,99.90
2018-07-26T02:49:32.431Z,99.90
2018-07-26T02:52:01.023Z,99.90
2018-07-26T02:54:29.128Z,99.90
2018-07-26T02:56:57.287Z,99.90
2018-07-26T02:59:25.157Z,99.90
2018-07-26T03:01:53.347Z,99.90
2018-07-26T03:04:21.412Z,99.90
2018-07-26T03:06:49.387Z,99.90
2018-07-26T03:09:17.621Z,99.90
2018-07-26T03:11:45.887Z,99.90
2018-07-26T03:14:13.809Z,99.90
2018-07-26T03:16:41.963Z,99.90
2018-07-26T03:19:10.139Z,99.90
2018-07-26T03:21:38.529Z,99.90
2018-07-26T03:24:06.687Z,99.90
2018-07-26T03:26:34.797Z,99.90
2018-07-26T03:29:03.229Z,99.90
2018-07-26T03:31:31.437Z,99.90
2018-07-26T03:33:59.455Z,99.90
2018-07-26T03:36:27.407Z,99.90
2018-07-26T03:38:55.501Z,99.90
2018-07-26T03:43:51.606Z,99.90
2018-07-26T03:46:20.126Z,99.90
2018-07-26T03:48:48.306Z,99.90
2018-07-26T03:51:16.479Z,99.90
2018-07-26T03:53:44.571Z,99.90
2018-07-26T03:56:12.845Z,99.90
2018-07-26T03:58:41.914Z,99.90
2018-07-26T04:01:11.399Z,99.90
2018-07-26T04:03:39.545Z,99.90
2018-07-26T04:06:07.671Z,99.90
2018-07-26T04:08:36.246Z,99.90
2018-07-26T04:11:04.263Z,99.90
2018-07-26T04:13:32.566Z,99.90
2018-07-26T04:16:01.119Z,99.90
2018-07-26T04:18:29.257Z,99.90
2018-07-26T04:20:57.345Z,99.90
2018-07-26T04:25:53.352Z,99.90
2018-07-26T04:28:21.451Z,99.90
2018-07-26T04:30:50.561Z,99.90
2018-07-26T04:33:19.706Z,99.90
2018-07-26T04:35:48.179Z,99.90
2018-07-26T04:38:16.511Z,99.90
2018-07-26T04:40:44.578Z,99.90
2018-07-26T04:43:12.693Z,99.90
2018-07-26T04:45:40.797Z,99.90
2018-07-26T04:48:09.314Z,99.90
2018-07-26T04:50:37.656Z,99.90
2018-07-26T04:53:05.697Z,99.90
2018-07-26T04:55:33.715Z,99.90
2018-07-26T04:58:01.939Z,99.90
2018-07-26T05:00:30.149Z,99.90
2018-07-26T05:02:58.582Z,99.90
2018-07-26T05:07:55.743Z,99.90
2018-07-26T05:10:25.187Z,99.90
2018-07-26T05:12:53.814Z,99.90
2018-07-26T05:15:22.253Z,99.90
2018-07-26T05:17:50.231Z,99.90
2018-07-26T05:20:18.449Z,99.90
2018-07-26T05:22:46.584Z,99.90
2018-07-26T05:25:14.649Z,99.90
2018-07-26T05:27:42.648Z,99.90
2018-07-26T05:30:10.839Z,99.90
2018-07-26T05:32:39.336Z,99.90
2018-07-26T05:35:07.509Z,99.90
2018-07-26T05:37:35.780Z,99.90
2018-07-26T05:40:06.126Z,99.90
2018-07-26T05:42:34.468Z,99.90
2018-07-26T05:45:02.780Z,99.90
2018-07-26T05:49:58.556Z,99.90
2018-07-26T05:52:26.799Z,99.90
2018-07-26T05:54:55.119Z,99.90
2018-07-26T05:57:24.710Z,99.90
2018-07-26T05:59:55.206Z,99.90
2018-07-26T06:04:51.408Z,99.90
2018-07-26T06:07:19.497Z,99.90
2018-07-26T06:09:48.002Z,99.90
2018-07-26T06:12:16.060Z,99.90
2018-07-26T06:14:44.240Z,99.90
2018-07-26T06:17:12.263Z,99.90
2018-07-26T06:19:40.745Z,99.90
2018-07-26T06:22:09.268Z,99.60
2018-07-26T06:24:38.238Z,99.10
2018-07-26T06:27:06.616Z,98.60
2018-07-26T06:29:35.089Z,98.10
2018-07-26T06:32:03.523Z,97.70
2018-07-26T06:34:32.047Z,97.00
2018-07-26T06:37:06.139Z,96.50
2018-07-26T06:39:35.413Z,95.70
2018-07-26T06:42:04.535Z,95.10
2018-07-26T06:44:35.104Z,94.40
2018-07-26T06:47:03.634Z,93.70
2018-07-26T06:49:33.862Z,93.20
2018-07-26T06:54:55.349Z,91.70
2018-07-26T06:57:25.962Z,91.00
2018-07-26T06:59:56.037Z,90.50
2018-07-26T07:02:25.582Z,90.00
2018-07-26T07:04:56.025Z,89.30
2018-07-26T07:07:25.332Z,88.60
2018-07-26T07:09:54.557Z,87.20
2018-07-26T07:12:24.054Z,86.10
2018-07-26T07:14:53.312Z,85.20
2018-07-26T07:17:21.480Z,83.90
2018-07-26T07:19:51.071Z,83.20
2018-07-26T07:22:20.157Z,83.40
2018-07-26T07:24:49.341Z,82.40
2018-07-26T07:27:18.938Z,80.10
2018-07-26T07:29:48.329Z,80.00
2018-07-26T07:32:17.340Z,79.80
2018-07-26T07:34:46.335Z,79.40
2018-07-26T07:37:14.539Z,78.50
2018-07-26T07:39:42.878Z,78.00
2018-07-26T07:42:11.353Z,76.20
2018-07-26T07:44:39.355Z,75.30
2018-07-26T07:47:09.178Z,74.40
2018-07-26T07:49:37.333Z,73.90
2018-07-26T07:52:05.869Z,73.40
2018-07-26T07:57:03.261Z,70.80
2018-07-26T07:59:32.462Z,69.70
2018-07-26T08:02:01.720Z,67.80
2018-07-26T08:04:32.191Z,66.40
2018-07-26T08:07:01.489Z,66.00
2018-07-26T08:09:30.440Z,64.10
2018-07-26T08:12:00.093Z,64.20
2018-07-26T08:14:28.845Z,64.20
2018-07-26T08:16:57.804Z,62.50
2018-07-26T08:19:26.418Z,61.90
2018-07-26T08:21:55.390Z,61.60
2018-07-26T08:24:24.290Z,59.70
2018-07-26T08:26:53.457Z,58.60
2018-07-26T08:29:22.365Z,58.80
2018-07-26T08:31:51.560Z,59.10
2018-07-26T08:34:20.642Z,59.20
2018-07-26T08:36:49.424Z,58.40
2018-07-26T08:39:18.799Z,58.30
2018-07-26T08:41:47.732Z,57.20
2018-07-26T08:44:17.071Z,56.60
2018-07-26T08:46:46.619Z,56.00
2018-07-26T08:51:44.394Z,54.60
2018-07-26T08:54:13.386Z,54.40
2018-07-26T08:56:42.302Z,54.90
2018-07-26T08:59:11.300Z,54.20
2018-07-26T09:01:41.073Z,53.60
2018-07-26T09:04:10.173Z,52.80
2018-07-26T09:06:38.870Z,53.30
2018-07-26T09:09:10.382Z,53.00
2018-07-26T09:11:39.443Z,51.90
2018-07-26T09:14:08.235Z,50.70
2018-07-26T09:16:37.550Z,51.10
2018-07-26T09:19:07.181Z,51.10
2018-07-26T09:21:36.295Z,51.10
2018-07-26T09:24:06.601Z,51.30
2018-07-26T09:26:36.765Z,51.20
2018-07-26T09:29:05.748Z,50.50
2018-07-26T09:31:38.129Z,51.20
2018-07-26T09:34:08.540Z,51.70
2018-07-26T09:36:39.118Z,51.80
2018-07-26T09:39:16.202Z,52.30
2018-07-26T09:41:45.290Z,52.60
2018-07-26T09:46:42.785Z,53.60
2018-07-26T09:51:40.435Z,54.20
2018-07-26T09:54:09.379Z,54.60
2018-07-26T09:56:38.197Z,55.60
2018-07-26T09:59:07.502Z,55.30
2018-07-26T10:01:37.670Z,55.30
2018-07-26T10:04:06.600Z,55.10
2018-07-26T10:06:35.822Z,55.30
2018-07-26T10:09:07.777Z,55.80
2018-07-26T10:11:36.791Z,56.20
2018-07-26T10:14:05.741Z,55.70
2018-07-26T10:16:34.723Z,54.60
2018-07-26T10:19:03.990Z,54.10
2018-07-26T10:21:32.908Z,53.90
2018-07-26T10:24:02.346Z,54.10
2018-07-26T10:26:33.200Z,52.50
2018-07-26T10:29:02.152Z,52.40
2018-07-26T10:31:31.618Z,51.90
2018-07-26T10:34:00.521Z,51.20
2018-07-26T10:36:29.569Z,50.30
2018-07-26T10:38:59.002Z,49.60
2018-07-26T10:41:27.902Z,49.50
2018-07-26T10:43:56.635Z,49.80
2018-07-26T10:46:25.538Z,50.40
2018-07-26T10:48:54.814Z,50.90
2018-07-26T10:51:23.752Z,50.90
2018-07-26T10:53:52.761Z,51.60
2018-07-26T10:56:21.645Z,52.00
2018-07-26T10:58:50.914Z,52.30
2018-07-26T11:01:19.709Z,51.80
2018-07-26T11:03:48.895Z,51.90
2018-07-26T11:06:17.799Z,52.20
2018-07-26T11:08:46.748Z,51.60
2018-07-26T11:11:15.395Z,51.30
2018-07-26T11:13:44.280Z,51.50
2018-07-26T11:16:13.616Z,51.20
2018-07-26T11:18:43.349Z,51.60
2018-07-26T11:22:41.669Z,51.10
2018-07-26T11:25:10.595Z,50.90
2018-07-26T11:27:39.312Z,50.00
2018-07-26T11:30:08.228Z,49.10
2018-07-26T11:32:38.251Z,48.40
2018-07-26T11:35:07.307Z,49.20
2018-07-26T11:37:36.174Z,50.40
2018-07-26T11:40:05.258Z,50.50
2018-07-26T11:42:34.294Z,50.30
2018-07-26T11:45:04.212Z,49.30
2018-07-26T11:47:33.208Z,48.70
2018-07-26T11:50:02.390Z,48.30
2018-07-26T11:52:31.510Z,48.30
2018-07-26T11:55:00.030Z,48.80
2018-07-26T11:57:28.581Z,49.70
2018-07-26T11:59:57.111Z,49.90
2018-07-26T12:02:25.643Z,50.20
2018-07-26T12:04:54.892Z,50.00
2018-07-26T12:07:23.350Z,47.60
2018-07-26T12:09:51.945Z,46.50
2018-07-26T12:12:20.500Z,47.00
2018-07-26T12:14:49.847Z,47.80
2018-07-26T12:17:18.796Z,48.70
2018-07-26T12:19:47.889Z,48.50
2018-07-26T12:22:17.021Z,48.20
2018-07-26T12:24:45.686Z,48.90
2018-07-26T12:27:14.442Z,48.70
2018-07-26T12:29:42.906Z,47.70
2018-07-26T12:32:11.506Z,46.80
2018-07-26T12:34:40.109Z,46.20
2018-07-26T12:37:09.893Z,46.40
2018-07-26T12:39:39.067Z,46.80
2018-07-26T12:42:10.533Z,47.20
2018-07-26T12:44:39.079Z,48.00
2018-07-26T12:47:08.442Z,47.90
2018-07-26T12:49:36.984Z,48.10
2018-07-26T12:54:35.638Z,46.70
2018-07-26T12:59:56.446Z,45.60
2018-07-26T13:02:24.930Z,44.40
2018-07-26T13:04:54.410Z,43.70
2018-07-26T13:07:23.920Z,43.90
2018-07-26T13:09:53.913Z,43.50
2018-07-26T13:12:23.415Z,43.60
2018-07-26T13:14:53.120Z,43.60
2018-07-26T13:17:22.722Z,43.60
2018-07-26T13:19:53.475Z,43.10
2018-07-26T13:22:23.529Z,42.70
2018-07-26T13:24:52.602Z,42.70
2018-07-26T13:27:21.156Z,42.60
2018-07-26T13:29:49.612Z,42.40
2018-07-26T13:32:18.338Z,42.30
2018-07-26T13:34:47.330Z,42.20
2018-07-26T13:37:16.499Z,42.00
2018-07-26T13:39:45.854Z,42.20
2018-07-26T13:42:15.110Z,42.20
2018-07-26T13:44:44.018Z,41.70
2018-07-26T13:47:12.543Z,40.90
2018-07-26T13:49:41.476Z,40.90
2018-07-26T13:52:10.582Z,40.70
2018-07-26T13:54:39.408Z,40.90
2018-07-26T13:57:08.566Z,41.40
2018-07-26T13:59:37.366Z,41.50
2018-07-26T14:02:06.614Z,41.90
2018-07-26T14:04:35.356Z,41.60
2018-07-26T14:07:05.134Z,41.30
2018-07-26T14:09:33.962Z,40.90
2018-07-26T14:12:02.830Z,41.40
2018-07-26T14:14:31.602Z,42.30
2018-07-26T14:17:01.390Z,42.50
2018-07-26T14:19:30.478Z,43.20
2018-07-26T14:21:59.220Z,42.60
2018-07-26T14:24:27.996Z,42.10
2018-07-26T14:26:56.783Z,42.10
2018-07-26T14:29:25.736Z,42.20
2018-07-26T14:31:54.494Z,42.30
2018-07-26T14:34:23.386Z,40.80
2018-07-26T14:36:52.002Z,40.70
2018-07-26T14:39:21.466Z,40.90
2018-07-26T14:41:50.952Z,41.50
2018-07-26T14:44:20.173Z,41.20
2018-07-26T14:46:49.519Z,41.40
2018-07-26T14:49:18.469Z,41.50
2018-07-26T14:51:47.582Z,40.40
2018-07-26T14:54:16.468Z,40.60
2018-07-26T14:56:45.227Z,41.30
2018-07-26T14:59:14.038Z,41.40
2018-07-26T15:01:42.944Z,42.10
2018-07-26T15:04:12.052Z,42.50
2018-07-26T15:06:41.298Z,42.90
2018-07-26T15:09:10.995Z,44.10
2018-07-26T15:11:40.089Z,43.60
2018-07-26T15:14:09.237Z,43.30
2018-07-26T15:16:38.280Z,43.00
2018-07-26T15:19:07.300Z,42.70
2018-07-26T15:21:36.142Z,42.40
2018-07-26T15:24:04.969Z,41.90
2018-07-26T15:26:34.176Z,42.70
2018-07-26T15:29:03.340Z,43.30
2018-07-26T15:31:32.724Z,43.20
2018-07-26T15:34:01.755Z,42.70
2018-07-26T15:36:30.549Z,42.20
2018-07-26T15:38:59.260Z,42.20
2018-07-26T15:41:27.943Z,42.90
2018-07-26T15:43:57.150Z,43.50
2018-07-26T15:46:26.023Z,44.00
2018-07-26T15:48:55.194Z,44.00
2018-07-26T15:51:24.327Z,44.00
2018-07-26T15:53:52.965Z,44.00
2018-07-26T15:56:22.865Z,43.70
2018-07-26T15:58:51.485Z,43.70
2018-07-26T16:01:20.323Z,43.60
2018-07-26T16:03:49.305Z,43.90
2018-07-26T16:06:18.593Z,43.60
2018-07-26T16:08:47.798Z,43.30
2018-07-26T16:11:16.565Z,43.50
2018-07-26T16:13:45.451Z,43.80
2018-07-26T16:16:14.205Z,44.10
2018-07-26T16:18:43.083Z,44.20
2018-07-26T16:21:12.917Z,44.20
2018-07-26T16:23:41.519Z,44.40
2018-07-26T16:26:10.069Z,44.50
2018-07-26T16:28:38.589Z,44.90
2018-07-26T16:31:07.139Z,45.00
2018-07-26T16:33:35.631Z,45.20
2018-07-26T16:36:04.149Z,45.50
2018-07-26T16:38:32.674Z,45.60
2018-07-26T16:41:01.109Z,45.70
2018-07-26T16:43:29.612Z,45.70
2018-07-26T16:48:26.774Z,46.10
2018-07-26T16:50:55.487Z,46.30
2018-07-26T16:53:24.059Z,46.40
2018-07-26T16:58:20.869Z,46.50
2018-07-26T17:00:49.307Z,46.50
2018-07-26T17:05:46.343Z,46.30
2018-07-26T17:08:14.965Z,46.40
2018-07-26T17:10:43.811Z,46.10
2018-07-26T17:13:12.421Z,46.30
2018-07-26T17:15:41.048Z,46.30
2018-07-26T17:18:09.595Z,46.20
2018-07-26T17:25:34.563Z,46.80
2018-07-26T17:28:03.071Z,46.70
2018-07-26T17:30:31.579Z,46.90
2018-07-26T17:33:00.113Z,47.10
2018-07-26T17:35:28.678Z,47.20
2018-07-26T17:40:25.405Z,46.90
2018-07-26T17:42:54.005Z,47.10
2018-07-26T17:45:22.928Z,46.90
2018-07-26T17:47:57.742Z,46.80
2018-07-26T17:52:54.529Z,46.80
2018-07-26T17:55:23.997Z,46.80
2018-07-26T17:57:52.515Z,47.00
2018-07-26T18:00:21.129Z,47.00
2018-07-26T18:02:49.636Z,46.70
2018-07-26T18:05:18.209Z,46.60
2018-07-26T18:07:46.710Z,46.40
2018-07-26T18:10:15.254Z,46.40
2018-07-26T18:12:43.810Z,46.50
2018-07-26T18:17:40.613Z,46.30
2018-07-26T18:20:09.111Z,46.30
2018-07-26T18:22:37.713Z,46.40
2018-07-26T18:25:06.335Z,46.40
2018-07-26T18:27:34.934Z,46.40
2018-07-26T18:30:03.523Z,46.60
2018-07-26T18:32:32.082Z,47.20
2018-07-26T18:37:28.779Z,48.30
2018-07-26T18:39:57.351Z,48.80
2018-07-26T18:42:26.695Z,49.30
2018-07-26T18:44:55.643Z,49.60
2018-07-26T18:47:24.361Z,50.10
2018-07-26T18:49:53.234Z,50.40
2018-07-26T18:52:22.059Z,51.60
2018-07-26T18:54:51.098Z,51.10
2018-07-26T18:57:20.008Z,51.50
2018-07-26T18:59:48.839Z,51.60
2018-07-26T19:02:17.665Z,51.80
2018-07-26T19:04:46.365Z,52.10
2018-07-26T19:07:15.173Z,52.50
2018-07-26T19:09:44.003Z,52.90
2018-07-26T19:12:12.514Z,53.00
2018-07-26T19:14:41.125Z,53.20
2018-07-26T19:17:09.815Z,53.20
2018-07-26T19:19:37.795Z,53.30
2018-07-26T19:22:06.223Z,53.30
2018-07-26T19:24:34.346Z,53.50
2018-07-26T19:27:03.815Z,53.30
2018-07-26T19:29:31.854Z,53.40
2018-07-26T19:32:00.806Z,53.50
2018-07-26T19:34:29.797Z,53.50
2018-07-26T19:36:58.722Z,53.60
2018-07-26T19:39:27.392Z,53.90
2018-07-26T19:41:55.449Z,53.80
2018-07-26T19:44:23.683Z,54.10
2018-07-26T19:46:52.003Z,54.30
2018-07-26T19:49:19.921Z,54.50
2018-07-26T19:51:47.975Z,54.70
2018-07-26T19:54:17.296Z,54.90
2018-07-26T19:57:04.566Z,55.60
2018-07-26T19:59:33.227Z,55.10
2018-07-26T20:02:02.104Z,55.30
2018-07-26T20:04:30.904Z,55.00
2018-07-26T20:07:00.219Z,55.60
2018-07-26T20:09:29.155Z,55.70
2018-07-26T20:11:58.170Z,55.90
2018-07-26T20:14:27.061Z,56.10
2018-07-26T20:16:55.867Z,56.40
2018-07-26T20:19:24.625Z,56.60
2018-07-26T20:21:53.118Z,56.90
2018-07-26T20:24:21.970Z,57.10
2018-07-26T20:26:50.196Z,57.40
2018-07-26T20:29:23.921Z,57.70
2018-07-26T20:34:37.789Z,58.10
2018-07-26T20:37:05.890Z,58.30
2018-07-26T20:39:34.762Z,58.30
2018-07-26T20:42:03.040Z,58.60
2018-07-26T20:44:30.904Z,58.70
2018-07-26T20:46:59.115Z,58.90
2018-07-26T20:49:27.104Z,59.00
2018-07-26T20:51:55.208Z,59.10
2018-07-26T20:54:23.314Z,59.30
2018-07-26T20:56:52.854Z,59.50
2018-07-26T20:59:20.977Z,59.50
2018-07-26T21:01:48.710Z,59.70
2018-07-26T21:06:45.178Z,60.40
2018-07-26T21:09:14.326Z,60.90
2018-07-26T21:11:43.189Z,61.50
2018-07-26T21:14:11.097Z,62.10
2018-07-26T21:16:39.279Z,62.50
2018-07-26T21:19:07.334Z,62.60
2018-07-26T21:21:35.934Z,62.80
2018-07-26T21:24:04.079Z,63.20
2018-07-26T21:26:33.244Z,63.80
2018-07-26T21:29:01.560Z,64.40
2018-07-26T21:31:29.550Z,65.10
2018-07-26T21:33:58.120Z,65.40
2018-07-26T21:36:26.081Z,65.40
2018-07-26T21:38:54.650Z,65.70
2018-07-26T21:41:22.712Z,66.00
2018-07-26T21:43:50.409Z,66.30
2018-07-26T21:46:18.184Z,66.70
2018-07-26T21:48:46.681Z,66.50
2018-07-26T21:51:14.714Z,66.70
2018-07-26T21:53:42.772Z,67.00
2018-07-26T21:56:10.519Z,66.70
2018-07-26T21:58:38.210Z,66.90
2018-07-26T22:01:05.955Z,67.00
2018-07-26T22:03:34.574Z,67.20
2018-07-26T22:06:02.871Z,67.50
2018-07-26T22:08:30.685Z,67.50
2018-07-26T22:10:58.399Z,67.80
2018-07-26T22:13:27.741Z,68.20
2018-07-26T22:15:56.665Z,68.60
2018-07-26T22:18:24.895Z,68.50
2018-07-26T22:20:53.308Z,68.90
2018-07-26T22:23:22.227Z,68.80
2018-07-26T22:25:51.790Z,69.20
2018-07-26T22:28:20.034Z,69.80
2018-07-26T22:33:15.770Z,70.20
2018-07-26T22:35:44.335Z,70.50
2018-07-26T22:38:13.107Z,70.90
2018-07-26T22:40:40.955Z,71.20
2018-07-26T22:43:08.738Z,71.30
2018-07-26T22:45:37.197Z,71.70
2018-07-26T22:48:04.954Z,71.90
2018-07-26T22:50:33.348Z,72.10
2018-07-26T22:53:01.150Z,72.30
2018-07-26T22:55:28.858Z,72.70
2018-07-26T22:57:56.617Z,72.80
2018-07-26T23:00:24.854Z,72.50
2018-07-26T23:02:52.992Z,73.50
2018-07-26T23:05:20.718Z,73.90
2018-07-26T23:07:48.418Z,74.40
2018-07-26T23:10:16.406Z,74.50
2018-07-26T23:12:44.470Z,75.00
2018-07-26T23:15:12.446Z,75.50
2018-07-26T23:17:40.749Z,75.90
2018-07-26T23:20:10.121Z,76.60
2018-07-26T23:22:37.804Z,77.60
2018-07-26T23:25:05.858Z,78.50
2018-07-26T23:27:33.648Z,79.30
2018-07-26T23:30:01.635Z,80.60
2018-07-26T23:32:29.370Z,81.90
2018-07-26T23:34:57.068Z,82.90
2018-07-26T23:37:24.859Z,84.30
2018-07-26T23:39:53.096Z,84.90
2018-07-26T23:42:21.586Z,86.80
2018-07-26T23:44:49.624Z,87.70
2018-07-26T23:47:17.474Z,88.60
2018-07-26T23:49:45.650Z,89.50
2018-07-26T23:52:13.988Z,90.30
2018-07-26T23:54:41.940Z,90.70
2018-07-26T23:57:09.900Z,91.40
2018-07-26T23:59:37.704Z,92.00
